Time;durP1;ratioP1;P1;durP2;ratioP2;P2;SDS_P1;SDS_P2;PMS_P1;PMS_P2;Temp;Humidity;BMP_temperature;BMP_pressure;BME280_temperature;BME280_humidity;BME280_pressure;Samples;Min_cycle;Max_cycle;Signal;HPM_P1;HPM_P2
2021/08/15 00:00:15;;;;;;;8.55;5.13;;;;;;;24.65;44.98;101494.84;5021377;28;20026;-60
2021/08/15 00:02:41;;;;;;;12.07;5.32;;;;;;;24.62;45.95;101485.09;5004797;28;20013;-60
2021/08/15 00:05:07;;;;;;;10.45;5.07;;;;;;;24.59;45.42;101480.06;5022816;28;20029;-60
2021/08/15 00:07:33;;;;;;;11.10;4.22;;;;;;;24.56;45.88;101480.47;5020043;28;20021;-60
2021/08/15 00:09:59;;;;;;;12.10;5.00;;;;;;;24.56;45.81;101483.22;5021438;28;20053;-60
2021/08/15 00:12:24;;;;;;;9.07;4.60;;;;;;;24.56;46.00;101485.09;5007641;28;20038;-60
2021/08/15 00:14:49;;;;;;;4.80;3.70;;;;;;;24.48;45.38;101483.38;4992857;28;20041;-60
2021/08/15 00:17:15;;;;;;;5.03;3.67;;;;;;;24.49;45.37;101485.06;4994063;28;20356;-59
2021/08/15 00:19:40;;;;;;;9.32;4.90;;;;;;;24.48;45.49;101477.91;4994117;28;20046;-60
2021/08/15 00:22:06;;;;;;;11.40;4.88;;;;;;;24.46;45.74;101474.50;4993924;28;20034;-60
2021/08/15 00:24:34;;;;;;;8.85;4.22;;;;;;;24.43;45.09;101485.88;4992693;28;20493;-61
2021/08/15 00:27:00;;;;;;;9.73;5.03;;;;;;;24.41;46.10;101477.00;4993876;28;20105;-61
2021/08/15 00:29:25;;;;;;;7.28;4.63;;;;;;;24.39;45.61;101479.13;4993555;28;20575;-59
2021/08/15 00:31:50;;;;;;;9.27;4.18;;;;;;;24.37;45.79;101473.00;4993919;28;20034;-60
2021/08/15 00:34:16;;;;;;;7.15;4.28;;;;;;;24.33;45.79;101468.97;4993571;28;20022;-60
2021/08/15 00:36:41;;;;;;;6.85;3.70;;;;;;;24.30;46.12;101469.38;4993633;28;20026;-60
2021/08/15 00:39:06;;;;;;;8.88;4.75;;;;;;;24.27;45.77;101470.63;4993550;28;20475;-60
2021/08/15 00:41:32;;;;;;;9.98;4.43;;;;;;;24.25;45.18;101466.41;4993616;28;20073;-60
2021/08/15 00:44:00;;;;;;;6.13;4.90;;;;;;;24.19;46.24;101467.22;4993900;28;20022;-60
2021/08/15 00:46:25;;;;;;;10.38;4.32;;;;;;;24.19;46.21;101464.47;4993914;28;20027;-60
2021/08/15 00:48:50;;;;;;;10.00;4.25;;;;;;;24.15;46.04;101460.44;4994017;28;20038;-60
2021/08/15 00:51:16;;;;;;;7.50;4.65;;;;;;;24.12;45.37;101460.88;4992451;28;20024;-60
2021/08/15 00:53:41;;;;;;;7.63;4.22;;;;;;;24.10;45.52;101457.47;4993622;28;20156;-60
2021/08/15 00:56:08;;;;;;;8.57;4.72;;;;;;;24.10;45.46;101457.47;4993797;28;20088;-61
2021/08/15 00:58:34;;;;;;;10.38;5.22;;;;;;;24.03;46.24;101440.13;4992605;28;20037;-60
2021/08/15 01:01:00;;;;;;;10.60;4.43;;;;;;;24.04;46.38;101447.28;4995619;28;20026;-60
2021/08/15 01:03:25;;;;;;;7.85;4.57;;;;;;;24.04;46.34;101444.56;4997583;28;20030;-61
2021/08/15 01:05:51;;;;;;;7.22;3.72;;;;;;;24.01;46.04;101447.72;4997273;28;20424;-60
2021/08/15 01:08:16;;;;;;;6.32;4.57;;;;;;;23.98;46.36;101439.91;4995910;28;20034;-60
2021/08/15 01:10:42;;;;;;;7.93;4.95;;;;;;;23.97;45.99;101440.94;4997129;28;20114;-60
2021/08/15 01:13:07;;;;;;;8.77;4.95;;;;;;;23.95;45.35;101437.56;4997369;28;20030;-60
2021/08/15 01:15:33;;;;;;;7.85;4.78;;;;;;;23.93;45.61;101434.16;4995757;28;20026;-60
2021/08/15 01:17:58;;;;;;;10.30;5.20;;;;;;;23.91;46.54;101431.66;4997242;28;20019;-61
2021/08/15 01:20:24;;;;;;;11.02;4.85;;;;;;;23.90;46.51;101429.13;4997148;28;20463;-61
2021/08/15 01:22:49;;;;;;;10.27;4.90;;;;;;;23.90;45.74;101423.66;4996706;28;20364;-60
2021/08/15 01:25:14;;;;;;;9.68;4.70;;;;;;;23.89;46.65;101427.41;4996657;28;20506;-60
2021/08/15 01:27:42;;;;;;;8.73;3.67;;;;;;;23.81;45.84;101417.50;4996734;28;20423;-60
2021/08/15 01:30:10;;;;;;;7.32;4.55;;;;;;;23.84;46.66;101419.81;4997410;28;20054;-61
2021/08/15 01:32:37;;;;;;;5.80;3.92;;;;;;;23.76;46.35;101412.59;4996847;28;20054;-60
2021/08/15 01:35:03;;;;;;;12.95;4.50;;;;;;;23.78;46.57;101421.44;4996590;28;20033;-60
2021/08/15 01:37:29;;;;;;;11.25;4.40;;;;;;;23.76;45.60;101422.69;4995177;28;20120;-61
2021/08/15 01:39:54;;;;;;;11.23;3.40;;;;;;;23.73;46.51;101418.47;4996800;28;20036;-60
2021/08/15 01:42:19;;;;;;;5.68;3.90;;;;;;;23.73;45.92;101423.09;4996914;28;20026;-60
2021/08/15 01:44:45;;;;;;;9.88;4.10;;;;;;;23.66;45.76;101414.88;4996723;28;20065;-60
2021/08/15 01:47:10;;;;;;;9.20;3.92;;;;;;;23.65;45.95;101418.63;4996714;28;20022;-60
2021/08/15 01:49:36;;;;;;;7.25;3.95;;;;;;;23.63;45.81;101418.00;4996276;28;20105;-60
2021/08/15 01:52:01;;;;;;;8.73;4.72;;;;;;;23.62;46.89;101418.19;4996282;28;20109;-60
2021/08/15 01:54:26;;;;;;;8.43;4.35;;;;;;;23.57;46.08;101417.94;4996545;28;20121;-60
2021/08/15 01:56:52;;;;;;;9.98;4.38;;;;;;;23.60;45.96;101417.53;4994896;28;20030;-61
2021/08/15 01:59:17;;;;;;;7.88;4.35;;;;;;;23.57;47.04;101413.31;4996538;28;20026;-61
2021/08/15 02:01:43;;;;;;;7.60;3.90;;;;;;;23.53;46.33;101408.47;4996225;28;20101;-60
2021/08/15 02:04:08;;;;;;;7.25;3.70;;;;;;;23.49;47.11;101405.28;4996340;28;20029;-60
2021/08/15 02:06:33;;;;;;;10.45;4.70;;;;;;;23.51;46.46;101413.25;4996130;28;20053;-60
2021/08/15 02:08:59;;;;;;;12.43;3.92;;;;;;;23.52;46.90;101404.88;4994512;28;20033;-61
2021/08/15 02:11:24;;;;;;;5.68;3.92;;;;;;;23.52;47.18;101404.03;4994587;28;20061;-60
2021/08/15 02:13:50;;;;;;;7.47;4.15;;;;;;;23.51;47.06;101396.84;4995838;28;20427;-60
2021/08/15 02:16:15;;;;;;;6.60;3.90;;;;;;;23.47;46.54;101390.94;4995858;28;20046;-60
2021/08/15 02:18:41;;;;;;;10.85;4.53;;;;;;;23.46;46.53;101389.25;4995793;28;20105;-60
2021/08/15 02:21:06;;;;;;;11.85;4.57;;;;;;;23.41;46.73;101378.06;4996006;28;20030;-60
2021/08/15 02:23:32;;;;;;;6.10;3.97;;;;;;;23.43;47.25;101381.44;4996141;28;20037;-60
2021/08/15 02:25:57;;;;;;;6.18;3.13;;;;;;;23.42;46.85;101382.47;4995938;28;20470;-60
2021/08/15 02:28:23;;;;;;;7.07;3.45;;;;;;;23.41;47.12;101380.81;4996019;28;20357;-60
2021/08/15 02:30:48;;;;;;;8.40;3.78;;;;;;;23.39;46.48;101374.69;4994197;28;20050;-61
2021/08/15 02:33:15;;;;;;;7.13;3.75;;;;;;;23.35;47.08;101364.31;4995414;28;20022;-60
2021/08/15 02:35:41;;;;;;;6.30;3.53;;;;;;;23.35;47.14;101376.09;4994303;28;20030;-60
2021/08/15 02:38:06;;;;;;;7.05;3.33;;;;;;;23.33;46.66;101374.59;4995624;28;20137;-60
2021/08/15 02:40:32;;;;;;;5.05;3.05;;;;;;;23.30;47.28;101356.72;4995712;28;20022;-60
2021/08/15 02:42:57;;;;;;;7.35;3.25;;;;;;;23.30;47.18;101355.88;4995883;28;20026;-60
2021/08/15 02:45:24;;;;;;;10.05;4.00;;;;;;;23.27;46.87;101362.59;4995164;28;20038;-60
2021/08/15 02:47:50;;;;;;;8.45;4.03;;;;;;;23.25;46.89;101348.28;4995387;28;20105;-60
2021/08/15 02:50:16;;;;;;;9.18;4.13;;;;;;;23.24;47.05;101346.56;4995699;28;20116;-60
2021/08/15 02:52:42;;;;;;;5.10;3.42;;;;;;;23.22;46.57;101348.66;4994232;28;20392;-61
2021/08/15 02:55:08;;;;;;;7.13;4.15;;;;;;;23.21;47.18;101352.44;4995085;28;20030;-59
2021/08/15 02:57:34;;;;;;;8.90;4.03;;;;;;;23.19;46.41;101349.06;4995055;28;20042;-60
2021/08/15 02:59:59;;;;;;;10.88;4.22;;;;;;;23.18;47.19;101350.09;4994975;28;20018;-60
2021/08/15 03:02:25;;;;;;;14.70;4.50;;;;;;;23.17;47.41;101356.63;4995215;28;20030;-61
2021/08/15 03:04:50;;;;;;;9.02;4.03;;;;;;;23.16;47.49;101353.03;4995171;28;20459;-60
2021/08/15 03:07:17;;;;;;;12.57;3.90;;;;;;;23.16;47.40;101355.78;4993578;28;20031;-60
2021/08/15 03:09:44;;;;;;;9.20;3.72;;;;;;;23.14;46.53;101341.44;4993610;28;20041;-60
2021/08/15 03:12:09;;;;;;;6.50;3.38;;;;;;;23.16;47.12;101344.00;4995100;28;20022;-60
2021/08/15 03:14:35;;;;;;;8.20;3.92;;;;;;;23.11;47.48;101333.66;4993468;28;20585;-60
2021/08/15 03:17:00;;;;;;;9.30;3.88;;;;;;;23.12;46.74;101337.22;4994923;28;20050;-60
2021/08/15 03:19:25;;;;;;;6.13;3.67;;;;;;;23.09;46.97;101334.88;4994688;28;20033;-60
2021/08/15 03:21:51;;;;;;;7.80;3.92;;;;;;;23.12;46.64;101337.22;4994069;28;20387;-60
2021/08/15 03:24:16;;;;;;;5.35;3.10;;;;;;;23.11;47.60;101335.53;4994749;28;20030;-60
2021/08/15 03:26:46;;;;;;;5.78;3.20;;;;;;;23.05;47.30;101319.94;4994885;28;20018;-60
2021/08/15 03:29:15;;;;;;;5.28;2.88;;;;;;;22.97;46.74;101307.28;4994271;28;20129;-60
2021/08/15 03:31:41;;;;;;;6.53;3.47;;;;;;;23.03;47.07;101319.28;4993323;28;20091;-60
2021/08/15 03:34:07;;;;;;;7.20;3.72;;;;;;;23.00;47.54;101316.97;4994555;28;20058;-60
2021/08/15 03:36:32;;;;;;;6.45;3.67;;;;;;;23.02;46.99;101320.31;4994686;28;20037;-60
2021/08/15 03:38:58;;;;;;;5.80;3.03;;;;;;;22.99;47.46;101318.84;4993108;28;20022;-59
2021/08/15 03:41:23;;;;;;;6.80;3.58;;;;;;;22.98;47.25;101317.13;4993340;28;20029;-60
2021/08/15 03:43:49;;;;;;;6.55;3.35;;;;;;;22.96;46.98;101316.50;4994475;28;20455;-60
2021/08/15 03:46:14;;;;;;;8.05;3.53;;;;;;;22.96;47.25;101311.03;4994171;28;20026;-62
2021/08/15 03:48:39;;;;;;;6.40;3.67;;;;;;;22.92;47.65;101309.72;4994104;28;20057;-60
2021/08/15 03:51:05;;;;;;;7.95;4.53;;;;;;;22.91;47.25;101307.22;4994599;28;20146;-60
2021/08/15 03:53:30;;;;;;;11.02;4.63;;;;;;;22.95;46.76;101313.94;4994650;28;20084;-59
2021/08/15 03:55:55;;;;;;;6.30;3.65;;;;;;;22.95;46.85;101309.34;4994375;28;20022;-60
2021/08/15 03:58:21;;;;;;;7.78;3.00;;;;;;;22.93;46.97;101310.56;4994346;28;20018;-60
2021/08/15 04:00:46;;;;;;;7.97;3.67;;;;;;;22.92;47.97;101308.91;4994070;28;20030;-59
2021/08/15 04:03:13;;;;;;;4.85;2.55;;;;;;;22.95;46.95;101314.81;4994113;28;20040;-60
2021/08/15 04:05:40;;;;;;;6.93;3.25;;;;;;;22.94;47.30;101309.53;4993993;28;20018;-59
2021/08/15 04:08:05;;;;;;;10.07;3.55;;;;;;;22.96;47.78;101315.66;4994000;28;20084;-59
2021/08/15 04:10:32;;;;;;;7.85;3.70;;;;;;;22.96;47.94;101316.50;4994144;28;20464;-60
2021/08/15 04:12:57;;;;;;;7.10;3.33;;;;;;;23.00;47.14;101325.16;4994234;28;20033;-60
2021/08/15 04:15:23;;;;;;;8.45;4.10;;;;;;;23.02;47.92;101321.19;4994184;28;20388;-60
2021/08/15 04:17:48;;;;;;;16.27;4.15;;;;;;;23.07;47.25;101320.56;4994132;28;20097;-60
2021/08/15 04:20:13;;;;;;;11.75;3.70;;;;;;;23.09;48.13;101310.28;4994108;28;20026;-60
2021/08/15 04:22:39;;;;;;;11.35;4.18;;;;;;;23.11;47.65;101302.75;4994320;28;20026;-60
2021/08/15 04:25:05;;;;;;;12.93;3.40;;;;;;;23.20;47.84;101312.47;4994091;28;20029;-60
2021/08/15 04:27:31;;;;;;;10.70;3.53;;;;;;;23.27;47.47;101313.38;4994507;28;20050;-60
2021/08/15 04:29:56;;;;;;;10.32;4.75;;;;;;;23.30;47.84;101318.44;4992506;28;20498;-60
2021/08/15 04:32:21;;;;;;;8.23;4.03;;;;;;;23.34;47.73;101310.69;4994041;28;20033;-60
2021/08/15 04:34:47;;;;;;;10.80;4.70;;;;;;;23.42;48.02;101311.38;4996476;28;20037;-60
2021/08/15 04:37:12;;;;;;;14.80;4.35;;;;;;;23.42;47.61;101297.69;4998361;28;20019;-60
2021/08/15 04:39:37;;;;;;;9.30;4.20;;;;;;;23.47;47.33;101313.53;4997676;28;20022;-60
2021/08/15 04:42:03;;;;;;;9.55;4.28;;;;;;;23.47;47.60;101314.38;4996415;28;20026;-60
2021/08/15 04:44:29;;;;;;;11.90;3.92;;;;;;;23.44;47.93;101303.00;4998107;28;20029;-60
2021/08/15 04:46:54;;;;;;;13.10;3.60;;;;;;;23.49;47.87;101303.22;4997837;28;20081;-60
2021/08/15 04:49:20;;;;;;;8.52;3.63;;;;;;;23.49;47.33;101301.34;4996471;28;20463;-60
2021/08/15 04:51:45;;;;;;;8.82;3.40;;;;;;;23.43;47.28;101283.00;4997683;28;20038;-60
2021/08/15 04:54:11;;;;;;;11.75;3.88;;;;;;;23.56;48.17;101306.84;4998003;28;20463;-60
2021/08/15 04:56:36;;;;;;;10.02;4.13;;;;;;;23.61;48.15;101304.34;4997708;28;20033;-60
2021/08/15 04:59:01;;;;;;;8.85;3.88;;;;;;;23.67;48.29;101304.38;4997337;28;20022;-60
2021/08/15 05:01:27;;;;;;;8.13;4.22;;;;;;;23.72;48.00;101301.88;4996062;28;20085;-60
2021/08/15 05:03:52;;;;;;;13.80;3.47;;;;;;;23.82;47.65;101300.63;4997595;28;20042;-60
2021/08/15 05:06:18;;;;;;;11.25;4.13;;;;;;;23.88;48.33;101295.22;4997439;28;20022;-60
2021/08/15 05:08:44;;;;;;;8.30;3.83;;;;;;;23.92;47.66;101293.75;4997213;28;20034;-60
2021/08/15 05:11:09;;;;;;;12.75;4.65;;;;;;;23.97;48.31;101293.13;4997456;28;20022;-60
2021/08/15 05:13:34;;;;;;;11.85;3.78;;;;;;;24.00;47.41;101287.25;4997031;28;20057;-60
2021/08/15 05:16:00;;;;;;;9.68;3.63;;;;;;;24.02;47.68;101290.63;4997110;28;20088;-60
2021/08/15 05:18:25;;;;;;;11.77;3.08;;;;;;;24.07;47.71;101277.16;4996060;28;20165;-60
2021/08/15 05:20:51;;;;;;;5.95;2.90;;;;;;;24.19;47.19;101291.97;4995570;28;20108;-60
2021/08/15 05:23:16;;;;;;;10.18;3.20;;;;;;;24.25;47.21;101293.88;4997166;28;20034;-60
2021/08/15 05:25:42;;;;;;;12.43;3.10;;;;;;;24.31;47.24;101291.19;4997147;28;20116;-60
2021/08/15 05:28:07;;;;;;;7.30;3.63;;;;;;;24.43;47.04;101293.31;4996488;28;20030;-60
2021/08/15 05:30:33;;;;;;;11.85;3.30;;;;;;;24.53;46.96;101297.31;4996352;28;20045;-60
2021/08/15 05:32:59;;;;;;;9.48;3.00;;;;;;;24.61;47.65;101296.25;4996818;28;20033;-59
2021/08/15 05:35:24;;;;;;;9.63;2.85;;;;;;;24.68;46.98;101281.50;4996758;28;20109;-60
2021/08/15 05:37:50;;;;;;;7.47;3.28;;;;;;;24.78;46.69;101292.06;4996925;28;20026;-60
2021/08/15 05:40:16;;;;;;;9.30;3.47;;;;;;;24.84;47.02;101297.59;4996564;28;20034;-60
2021/08/15 05:42:42;;;;;;;6.13;2.85;;;;;;;24.89;47.57;101292.31;4996542;28;20030;-60
2021/08/15 05:45:08;;;;;;;7.20;2.90;;;;;;;24.95;47.50;101287.88;4996149;28;20042;-60
2021/08/15 05:47:33;;;;;;;8.20;3.90;;;;;;;25.04;47.19;101292.09;4996308;28;20026;-60
2021/08/15 05:49:58;;;;;;;10.13;3.20;;;;;;;25.12;46.92;101293.75;4996406;28;20037;-60
2021/08/15 05:52:25;;;;;;;6.78;3.00;;;;;;;25.30;46.97;101302.16;4996639;28;20018;-60
2021/08/15 05:54:51;;;;;;;7.05;3.03;;;;;;;25.40;46.67;101288.84;4996599;28;20058;-60
2021/08/15 05:57:16;;;;;;;6.43;3.20;;;;;;;25.55;46.79;101285.88;4994959;28;20507;-60
2021/08/15 05:59:42;;;;;;;10.57;2.92;;;;;;;25.76;46.25;101280.13;4996076;28;20014;-60
2021/08/15 06:02:07;;;;;;;7.10;2.90;;;;;;;25.99;46.03;101281.25;4996173;28;20022;-60
2021/08/15 06:04:32;;;;;;;9.55;3.17;;;;;;;26.19;46.01;101283.94;4996220;28;20046;-60
2021/08/15 06:06:59;;;;;;;6.90;2.88;;;;;;;26.36;45.56;101284.25;4996129;28;20077;-60
2021/08/15 06:09:25;;;;;;;5.97;2.95;;;;;;;26.47;45.36;101281.63;4994749;28;20176;-59
2021/08/15 06:11:50;;;;;;;10.57;2.70;;;;;;;26.65;45.86;101285.53;4996259;28;20499;-59
2021/08/15 06:14:16;;;;;;;7.57;2.88;;;;;;;26.73;45.69;101288.84;4995938;28;20501;-60
2021/08/15 06:16:42;;;;;;;6.18;3.00;;;;;;;26.80;45.18;101280.59;4995881;28;20030;-60
2021/08/15 06:19:07;;;;;;;7.93;2.42;;;;;;;27.03;44.56;101273.38;4996186;28;20018;-60
2021/08/15 06:21:33;;;;;;;7.03;2.30;;;;;;;27.20;44.96;101281.88;4995871;28;20026;-60
2021/08/15 06:23:58;;;;;;;6.30;2.60;;;;;;;27.21;44.93;101277.22;4994540;28;20113;-60
2021/08/15 06:26:24;;;;;;;6.47;3.05;;;;;;;27.24;45.27;101269.38;4995727;28;20058;-60
2021/08/15 06:28:51;;;;;;;11.60;2.47;;;;;;;27.36;44.26;101278.53;4996005;28;20077;-60
2021/08/15 06:31:16;;;;;;;7.00;2.22;;;;;;;27.52;44.45;101266.13;4995502;28;20113;-60
2021/08/15 06:33:41;;;;;;;10.25;2.75;;;;;;;27.71;44.73;101254.03;4995612;28;20060;-60
2021/08/15 06:36:07;;;;;;;7.13;2.40;;;;;;;27.78;44.25;101260.28;4995554;28;20027;-60
2021/08/15 06:38:32;;;;;;;6.40;2.33;;;;;;;27.96;44.83;101260.25;4995745;28;20025;-60
2021/08/15 06:40:57;;;;;;;5.82;2.53;;;;;;;28.09;44.23;101257.34;4994085;28;20033;-60
2021/08/15 06:43:24;;;;;;;4.80;2.95;;;;;;;28.18;43.75;101261.47;4995544;28;20030;-59
2021/08/15 06:45:49;;;;;;;9.40;2.67;;;;;;;28.11;44.62;101246.09;4993968;28;20022;-60
2021/08/15 06:48:15;;;;;;;7.20;2.20;;;;;;;28.35;43.73;101247.00;4995126;28;20037;-60
2021/08/15 06:50:40;;;;;;;5.85;2.50;;;;;;;28.31;44.49;101252.97;4995186;28;20022;-60
2021/08/15 06:53:06;;;;;;;10.02;2.72;;;;;;;28.27;43.62;101254.53;4977661;28;20042;-60
2021/08/15 06:55:31;;;;;;;10.15;2.78;;;;;;;28.29;44.37;101257.91;4995351;28;20075;-59
2021/08/15 06:57:57;;;;;;;7.82;2.70;;;;;;;28.37;43.80;101251.19;4992871;28;20025;-60
2021/08/15 07:00:22;;;;;;;7.35;2.92;;;;;;;28.69;42.68;101255.41;4995443;28;20406;-60
2021/08/15 07:02:50;;;;;;;5.60;2.47;;;;;;;28.73;43.27;101258.50;4995299;28;20037;-60
2021/08/15 07:05:16;;;;;;;7.63;2.75;;;;;;;28.89;42.81;101246.78;4993709;28;20030;-60
2021/08/15 07:07:42;;;;;;;5.28;2.88;;;;;;;29.13;42.76;101255.88;4995029;28;20034;-59
2021/08/15 07:10:09;;;;;;;8.50;2.60;;;;;;;29.29;42.16;101264.28;4993873;28;20490;-60
2021/08/15 07:12:35;;;;;;;9.52;3.20;;;;;;;29.42;41.96;101253.03;4993619;28;20414;-60
2021/08/15 07:15:01;;;;;;;8.13;2.63;;;;;;;29.64;42.22;101253.19;4995037;28;20408;-60
2021/08/15 07:17:27;;;;;;;6.18;3.08;;;;;;;29.77;41.58;101254.84;4994991;28;20030;-60
2021/08/15 07:19:52;;;;;;;7.82;2.75;;;;;;;29.89;41.70;101248.22;4995113;28;20077;-60
2021/08/15 07:22:18;;;;;;;6.35;2.90;;;;;;;30.12;41.47;101250.06;4994496;28;20092;-59
2021/08/15 07:24:43;;;;;;;7.85;3.03;;;;;;;30.36;41.08;101248.84;4994806;28;20034;-60
2021/08/15 07:27:09;;;;;;;5.80;2.90;;;;;;;30.60;40.91;101251.50;4994495;28;20038;-60
2021/08/15 07:29:34;;;;;;;8.15;2.75;;;;;;;30.86;40.74;101243.34;4993009;28;20049;-60
2021/08/15 07:32:00;;;;;;;6.30;2.70;;;;;;;30.99;40.38;101244.97;4994564;28;20065;-59
2021/08/15 07:34:26;;;;;;;12.48;3.10;;;;;;;31.23;40.31;101248.34;4993635;28;20085;-60
2021/08/15 07:36:51;;;;;;;14.00;3.00;;;;;;;31.54;39.81;101239.41;4994878;28;20105;-60
2021/08/15 07:39:17;;;;;;;6.03;2.40;;;;;;;31.81;39.49;101239.44;4995313;28;20464;-60
2021/08/15 07:41:42;;;;;;;5.35;2.47;;;;;;;32.02;39.17;101236.66;4993837;28;20030;-60
2021/08/15 07:44:08;;;;;;;5.60;2.63;;;;;;;32.28;39.21;101235.84;4996034;28;20022;-60
2021/08/15 07:46:33;;;;;;;5.28;2.58;;;;;;;32.59;38.30;101231.44;4994672;28;20029;-61
2021/08/15 07:48:59;;;;;;;6.55;2.80;;;;;;;32.79;38.69;101231.59;4994050;28;20494;-60
2021/08/15 07:51:25;;;;;;;3.80;2.40;;;;;;;32.96;37.78;101236.16;4993173;28;20034;-60
2021/08/15 07:53:51;;;;;;;4.60;2.25;;;;;;;33.13;37.58;101236.88;4994606;28;20482;-60
2021/08/15 07:56:17;;;;;;;8.88;3.08;;;;;;;33.28;37.17;101240.56;5000370;28;20065;-59
2021/08/15 07:58:43;;;;;;;7.40;3.10;;;;;;;33.40;38.37;101237.56;4977575;28;20022;-59
2021/08/15 08:01:08;;;;;;;10.48;3.03;;;;;;;33.44;37.42;101241.50;4992802;28;20033;-60
2021/08/15 08:03:33;;;;;;;7.78;2.40;;;;;;;33.20;38.41;101241.06;4993849;28;20029;-60
2021/08/15 08:05:59;;;;;;;10.93;3.00;;;;;;;33.02;38.10;101237.88;4992869;28;20058;-60
2021/08/15 08:08:24;;;;;;;9.73;3.55;;;;;;;32.88;37.91;101231.09;4994094;28;20170;-60
2021/08/15 08:10:53;;;;;;;4.70;2.95;;;;;;;32.86;37.99;101230.53;4994136;28;20026;-59
2021/08/15 08:13:20;;;;;;;9.18;3.03;;;;;;;33.04;37.96;101227.31;4993937;28;20116;-60
2021/08/15 08:15:48;;;;;;;6.30;2.78;;;;;;;33.24;36.72;101228.31;4994317;28;20182;-60
2021/08/15 08:18:13;;;;;;;6.85;2.42;;;;;;;33.34;37.01;101233.91;4993970;28;20034;-59
2021/08/15 08:20:39;;;;;;;7.07;2.58;;;;;;;33.39;37.98;101235.91;4992671;28;20084;-60
2021/08/15 08:23:07;;;;;;;7.55;2.17;;;;;;;33.29;37.81;101224.72;4994565;28;20034;-59
2021/08/15 08:25:33;;;;;;;5.53;2.60;;;;;;;33.23;36.97;101234.13;4994248;28;20022;-59
2021/08/15 08:27:59;;;;;;;7.20;2.33;;;;;;;33.11;37.44;101222.41;4994323;28;20364;-61
2021/08/15 08:30:24;;;;;;;6.43;2.33;;;;;;;33.03;37.04;101231.22;4994568;28;20054;-60
2021/08/15 08:32:50;;;;;;;7.03;2.47;;;;;;;32.88;38.06;101231.09;4994070;28;20056;-60
2021/08/15 08:35:15;;;;;;;8.55;2.42;;;;;;;32.74;37.50;101217.69;4992680;28;20049;-60
2021/08/15 08:37:41;;;;;;;6.22;2.45;;;;;;;32.80;37.98;101230.47;4994025;28;20022;-61
2021/08/15 08:40:07;;;;;;;3.33;1.98;;;;;;;32.83;37.32;101227.19;4994109;28;20022;-61
2021/08/15 08:42:33;;;;;;;6.47;2.45;;;;;;;32.94;37.15;101221.72;4994404;28;20419;-60
2021/08/15 08:45:02;;;;;;;3.92;2.42;;;;;;;33.05;37.74;101221.53;4993827;28;20022;-60
2021/08/15 08:47:29;;;;;;;8.02;2.47;;;;;;;32.97;37.01;101222.00;4994580;28;20026;-60
2021/08/15 08:49:55;;;;;;;4.75;2.13;;;;;;;32.93;38.07;101222.81;4994136;28;20038;-60
2021/08/15 08:52:23;;;;;;;5.90;2.80;;;;;;;33.08;37.18;101228.50;4993755;28;20035;-59
2021/08/15 08:54:50;;;;;;;5.80;2.30;;;;;;;33.22;37.15;101215.81;4994517;28;20030;-60
2021/08/15 08:57:15;;;;;;;5.15;2.22;;;;;;;33.69;36.66;101222.19;4995227;28;20126;-60
2021/08/15 08:59:41;;;;;;;4.72;2.55;;;;;;;33.92;36.74;101224.44;5008919;28;20042;-60
2021/08/15 09:02:06;;;;;;;5.13;2.33;;;;;;;34.29;36.23;101212.31;5013334;28;20084;-59
2021/08/15 09:04:32;;;;;;;5.60;2.13;;;;;;;34.58;35.79;101213.47;5013394;28;20028;-59
2021/08/15 09:07:08;;;;;;;4.85;2.47;;;;;;;34.75;35.36;101207.63;5011752;28;20120;-59
2021/08/15 09:09:36;;;;;;;6.38;2.13;;;;;;;35.17;34.76;101210.06;5013322;28;20382;-60
2021/08/15 09:12:03;;;;;;;4.90;1.95;;;;;;;35.67;35.02;101204.31;5013324;28;20534;-60
2021/08/15 09:14:31;;;;;;;6.97;2.40;;;;;;;35.96;34.24;101205.25;5013407;28;20105;-60
2021/08/15 09:17:06;;;;;;;6.80;2.63;;;;;;;36.29;34.26;101192.50;5013107;28;20141;-60
2021/08/15 09:19:34;;;;;;;4.20;2.13;;;;;;;36.57;33.59;101200.13;5013602;28;20053;-60
2021/08/15 09:22:15;;;;;;;10.98;2.42;;;;;;;36.65;33.34;101198.66;5016615;28;20467;-60
2021/08/15 09:24:56;;;;;;;4.10;2.40;;;;;;;36.60;33.14;101193.13;5016568;28;20025;-60
2021/08/15 09:27:26;;;;;;;6.55;2.50;;;;;;;36.85;32.89;101189.25;5016741;28;20105;-60
2021/08/15 09:30:05;;;;;;;4.43;2.17;;;;;;;37.10;32.64;101198.22;5016330;28;20125;-61
2021/08/15 09:32:34;;;;;;;10.15;2.47;;;;;;;37.38;32.53;101192.84;5016563;28;20033;-61
2021/08/15 09:35:01;;;;;;;6.88;1.98;;;;;;;37.49;32.25;101194.41;5016184;28;20021;-60
2021/08/15 09:37:34;;;;;;;7.07;2.42;;;;;;;37.57;31.90;101196.56;5015300;28;20099;-60
2021/08/15 09:39:59;;;;;;;8.80;2.60;;;;;;;37.68;31.93;101186.88;5016624;28;20052;-60
2021/08/15 09:42:42;;;;;;;7.07;2.35;;;;;;;37.81;31.38;101197.31;5015256;28;20108;-61
2021/08/15 09:45:12;;;;;;;6.07;2.45;;;;;;;37.94;31.47;101185.44;5016595;28;20462;-60
2021/08/15 09:47:38;;;;;;;5.15;2.63;;;;;;;38.09;31.15;101187.97;5016580;28;20021;-61
2021/08/15 09:50:18;;;;;;;6.00;1.88;;;;;;;38.05;31.05;101180.50;5014859;28;20018;-61
2021/08/15 09:52:43;;;;;;;4.43;1.80;;;;;;;37.84;30.93;101171.53;5016570;28;20029;-60
2021/08/15 09:55:09;;;;;;;3.97;2.20;;;;;;;37.77;30.93;101185.09;5016540;28;20467;-61
2021/08/15 09:57:36;;;;;;;3.85;2.05;;;;;;;37.84;31.24;101179.94;5016135;28;20022;-61
2021/08/15 10:00:04;;;;;;;7.20;2.30;;;;;;;37.79;31.32;101180.00;5016256;28;20490;-61
2021/08/15 10:02:29;;;;;;;5.78;2.45;;;;;;;37.77;30.90;101180.31;5015902;28;20025;-61
2021/08/15 10:04:55;;;;;;;5.53;2.40;;;;;;;37.45;30.88;101187.75;5015402;28;20026;-60
2021/08/15 10:07:21;;;;;;;6.35;2.67;;;;;;;37.17;31.51;101179.13;5016333;28;20022;-60
2021/08/15 10:09:47;;;;;;;6.22;2.40;;;;;;;36.99;30.96;101187.44;5014401;28;20033;-60
2021/08/15 10:12:13;;;;;;;4.60;2.03;;;;;;;36.77;31.45;101182.31;5015873;28;20390;-60
2021/08/15 10:14:38;;;;;;;6.38;1.73;;;;;;;37.01;30.70;101186.03;5015915;28;20026;-61
2021/08/15 10:17:07;;;;;;;3.10;1.92;;;;;;;36.99;31.31;101184.66;5015653;28;20030;-60
2021/08/15 10:19:52;;;;;;;3.50;1.70;;;;;;;36.89;31.41;101179.13;5014688;28;20022;-61
2021/08/15 10:22:23;;;;;;;3.55;2.60;;;;;;;36.75;31.36;101173.41;5015733;28;20474;-60
2021/08/15 10:24:51;;;;;;;4.63;2.03;;;;;;;36.60;31.15;101159.59;5015867;28;20021;-60
2021/08/15 10:27:38;;;;;;;4.90;2.13;;;;;;;36.56;31.46;101164.94;5015562;28;20033;-61
2021/08/15 10:30:24;;;;;;;5.45;2.08;;;;;;;36.56;31.65;101158.53;5015140;28;20104;-60
2021/08/15 10:32:55;;;;;;;4.75;2.10;;;;;;;36.60;31.36;101154.03;5015233;28;20022;-60
2021/08/15 10:35:22;;;;;;;21.40;10.73;;;;;;;36.91;31.06;101160.13;5015214;28;20475;-61
2021/08/15 10:37:52;;;;;;;6.53;2.38;;;;;;;36.78;31.22;101156.06;5015379;28;20446;-60
2021/08/15 10:40:43;;;;;;;5.72;2.00;;;;;;;36.48;31.69;101159.97;5015524;28;20459;-61
2021/08/15 10:43:20;;;;;;;5.43;1.95;;;;;;;36.30;31.93;101155.09;5015419;28;20041;-59
2021/08/15 10:46:18;;;;;;;5.82;2.20;;;;;;;36.67;31.51;101148.91;5015278;28;20122;-61
2021/08/15 10:49:09;;;;;;;5.95;2.03;;;;;;;37.57;30.43;101146.22;5013973;28;20021;-60
2021/08/15 10:51:46;;;;;;;4.72;2.30;;;;;;;37.95;30.50;101147.06;5015219;28;20577;-61
2021/08/15 10:54:26;;;;;;;5.47;2.20;;;;;;;38.05;30.87;101138.50;5015075;28;20034;-61
2021/08/15 10:56:54;;;;;;;3.33;1.80;;;;;;;38.17;30.90;101136.88;5015044;28;20048;-61
2021/08/15 10:59:36;;;;;;;3.55;1.75;;;;;;;39.10;29.22;101140.53;5015048;28;20053;-60
2021/08/15 11:02:12;;;;;;;3.45;2.00;;;;;;;39.87;28.58;101133.00;5013467;28;20386;-61
2021/08/15 11:04:38;;;;;;;3.95;1.80;;;;;;;40.73;28.21;101131.63;5014675;28;20029;-59
2021/08/15 11:07:04;;;;;;;6.85;2.50;;;;;;;41.41;27.73;101128.25;5014943;28;20057;-59
2021/08/15 11:09:55;;;;;;;3.28;2.22;;;;;;;42.09;27.27;101123.84;5014748;28;20057;-59
2021/08/15 11:12:21;;;;;;;6.80;2.90;;;;;;;42.54;26.79;101119.47;5014713;28;20165;-59
2021/08/15 11:15:06;;;;;;;4.55;2.38;;;;;;;42.86;26.50;101118.88;5014564;28;20270;-59
2021/08/15 11:17:34;;;;;;;8.73;2.10;;;;;;;43.20;26.23;101117.06;5014600;28;20021;-59
2021/08/15 11:20:30;;;;;;;6.50;2.28;;;;;;;43.57;25.64;101115.34;5014341;28;20101;-59
2021/08/15 11:23:10;;;;;;;6.03;2.13;;;;;;;43.81;25.63;101107.03;5014253;28;20391;-59